Flight Track Log - Related Links

Times and Time Zones

All times are in EDT time to prevent confusion due to time zone crossing. See the RPA3159 flight status page for this flight to view local times or setup timezone preferences in your user account.

Time Position Orientation Groundspeed Altitude Reporting Facility
EDT Latitude Longitude Course Direction KTS MPH feet Rate Location/Type
Thu 11:34:51 AM 44.3697 -73.1311 195° South 249 287 4,500  Level Boston Center
Thu 11:35:51 AM 44.3069 -73.1625 200° South 270 311 8,100 3,150 Climbing Boston Center
Thu 11:36:00 AM 44.1180 -73.2808 195° South  Level FlightAware Approximate
Thu 11:36:51 AM 44.2339 -73.1933 197° South 270 311 10,800  Level Boston Center
Thu 11:37:00 AM 44.0302 -73.3122 194° South  Level FlightAware Approximate
Thu 11:37:51 AM 44.1567 -73.2272 197° South 299 344 13,500  Level Boston Center
Thu 11:38:00 AM 43.9420 -73.3416 193° South  Level FlightAware Approximate
Thu 11:38:51 AM 44.0750 -73.2636 198° South 305 351 16,100  Level Boston Center
Thu 11:39:00 AM 43.8543 -73.3735 195° South  Level FlightAware Approximate
Thu 11:39:51 AM 43.9994 -73.3319 213° Southwest 319 367 18,800  Level Boston Center
Thu 11:40:00 AM 43.7580 -73.4096 195° South  Level FlightAware Approximate
Thu 11:40:51 AM 43.9219 -73.4000 212° Southwest 329 379 21,400  Level Boston Center
Thu 11:41:51 AM 43.8419 -73.4733 213° Southwest 341 392 22,000 300 Climbing Boston Center
Thu 11:42:51 AM 43.7600 -73.5497 214° Southwest 355 409 22,000  Level Boston Center
Thu 11:43:51 AM 43.6781 -73.6256 214° Southwest 360 414 22,000  Level Boston Center
Thu 11:44:51 AM 43.5981 -73.7014 214° Southwest 355 409 22,000  Level Boston Center
Thu 11:45:51 AM 43.5139 -73.7742 212° Southwest 355 409 22,000  Level Boston Center
Thu 11:46:51 AM 43.4317 -73.8497 214° Southwest 360 414 22,000  Level Boston Center
Thu 11:47:51 AM 43.3472 -73.9247 213° Southwest 360 414 22,000  Level Boston Center
Thu 11:48:51 AM 43.2631 -73.9997 213° Southwest 360 414 22,000  Level Boston Center
Thu 11:49:51 AM 43.1806 -74.0744 213° Southwest 360 414 22,000  Level Boston Center
Thu 11:50:51 AM 43.0961 -74.1519 214° Southwest 365 420 22,000  Level Boston Center
Thu 11:51:51 AM 43.0136 -74.2289 214° Southwest 365 420 22,000  Level Boston Center
Thu 11:52:51 AM 42.9269 -74.3031 212° Southwest 365 420 22,000  Level Boston Center
Thu 11:53:51 AM 42.8425 -74.3769 213° Southwest 371 427 22,000  Level Boston Center
Thu 11:54:51 AM 42.7556 -74.4564 214° Southwest 371 427 22,000  Level Boston Center
Thu 11:55:51 AM 42.6708 -74.5297 212° Southwest 376 433 22,000  Level Boston Center
Thu 11:56:51 AM 42.5861 -74.6031 213° Southwest 376 433 22,000  Level Boston Center
Thu 11:57:51 AM 42.5033 -74.6761 213° Southwest 376 433 22,000 -550 Level Boston Center
Thu 11:58:51 AM 42.4122 -74.7572 213° Southwest 376 433 20,900 -1,059 Descending Boston Center
Thu 12:00:41 PM 42.2600 -74.8842 212° Southwest 346 398 19,000 -663 Descending New York Center
Thu 12:01:43 PM 42.1786 -74.9544 213° Southwest 346 398 19,000  Level New York Center
Thu 12:02:41 PM 42.1033 -75.0225 214° Southwest 357 411 19,000  Level New York Center
Thu 12:03:41 PM 42.0197 -75.0922 212° Southwest 362 417 19,000  Level New York Center
Thu 12:04:42 PM 41.9253 -75.1669 210° Southwest 362 417 19,000 -605 Level New York Center
Thu 12:05:40 PM 41.8414 -75.2367 212° Southwest 356 410 17,800 -1,650 Descending New York Center
Thu 12:06:42 PM 41.7664 -75.2956 210° Southwest 356 410 15,700 -1,869 Descending New York Center
Thu 12:07:42 PM 41.6889 -75.3597 212° Southwest 351 404 14,000 -1,587 Descending New York Center
Thu 12:08:43 PM 41.6031 -75.4286 211° Southwest 345 397 12,500 -992 Descending New York Center
Thu 12:09:43 PM 41.5278 -75.4900 211° Southwest 335 386 12,000 -254 Descending New York Center
Thu 12:10:41 PM 41.4503 -75.5481 209° Southwest 330 380 12,000  Level New York Center
Thu 12:11:43 PM 41.3814 -75.6042 211° Southwest 330 380 12,000  Level New York Center
Thu 12:12:41 PM 41.3039 -75.6647 210° Southwest 330 380 12,000  Level New York Center
Thu 12:13:42 PM 41.2175 -75.6917 193° South 312 359 12,000  Level New York Center
Thu 12:14:43 PM 41.1197 -75.6900 179° South 322 371 12,000  Level New York Center
Thu 12:15:43 PM 41.0314 -75.7056 188° South 328 377 12,000  Level New York Center
Thu 12:16:41 PM 40.9431 -75.7239 189° South 333 383 12,000 -100 Level New York Center
Thu 12:17:43 PM 40.8536 -75.7203 178° South 322 371 11,800 -590 Descending New York Center
Thu 12:18:43 PM 40.7808 -75.6683 152° Southeast 305 351 10,800 -923 Descending New York Center
Thu 12:19:40 PM 40.7142 -75.6197 151° Southeast 300 345 10,000 -407 Descending New York Center
Thu 12:20:41 PM 40.6433 -75.5683 151° Southeast 300 345 10,000  Level New York Center
Thu 12:21:41 PM 40.5622 -75.5106 152° Southeast 300 345 10,000  Level New York Center
Thu 12:22:42 PM 40.4872 -75.4592 152° Southeast 300 345 10,000 -99 Level New York Center
Thu 12:23:42 PM 40.4242 -75.4167 153° Southeast 300 345 9,800 -1,041 Descending New York Center
Thu 12:24:43 PM 40.3408 -75.3675 156° South 295 339 7,900 -1,765 Descending New York Center
Thu 12:25:41 PM 40.2694 -75.3247 155° Southeast 290 334 6,300 -966 Descending New York Center
Thu 12:26:41 PM 40.2008 -75.2658 147° Southeast 288 331 6,000 -150 Descending New York Center
Thu 12:27:41 PM 40.1447 -75.2106 143° Southeast 288 331 6,000  Level New York Center
Thu 12:28:41 PM 40.0850 -75.1333 135° Southeast 282 325 6,000  Level New York Center
Thu 12:29:22 PM 40.0667 -75.0833 116° Southeast 200 230 6,000 -696 Level Philadelphia TRACON
Thu 12:30:33 PM 40.0000 -75.0333 150° Southeast 202 232 4,700 -1,333 Descending Philadelphia TRACON
Thu 12:31:28 PM 39.9500 -75.0167 166° South 191 220 3,200 -1,350 Descending Philadelphia TRACON
Thu 12:32:33 PM 39.9167 -75.0500 217° Southwest 178 205 2,000 -1,108 Descending Philadelphia TRACON

Login

Don't have an account? Register now (free) for customized features, flight alerts, and more!